sensor_id;sensor_type;location;lat;lon;timestamp;P1;durP1;ratioP1;P2;durP2;ratioP2
17482;SDS011;8858;52.308;20.994;2022-08-01T00:00:50;4.23;;;3.53;;
17482;SDS011;8858;52.308;20.994;2022-08-01T00:03:22;5.20;;;3.53;;
17482;SDS011;8858;52.308;20.994;2022-08-01T00:05:52;6.33;;;3.53;;
17482;SDS011;8858;52.308;20.994;2022-08-01T00:08:28;4.67;;;3.80;;
17482;SDS011;8858;52.308;20.994;2022-08-01T00:10:57;5.83;;;3.63;;
17482;SDS011;8858;52.308;20.994;2022-08-01T00:13:30;3.60;;;3.40;;
17482;SDS011;8858;52.308;20.994;2022-08-01T00:15:58;7.40;;;3.70;;
17482;SDS011;8858;52.308;20.994;2022-08-01T00:18:28;6.63;;;3.77;;
17482;SDS011;8858;52.308;20.994;2022-08-01T00:20:57;7.97;;;3.97;;
17482;SDS011;8858;52.308;20.994;2022-08-01T00:23:26;9.10;;;3.90;;
17482;SDS011;8858;52.308;20.994;2022-08-01T00:25:55;7.07;;;4.10;;
17482;SDS011;8858;52.308;20.994;2022-08-01T00:28:23;7.90;;;3.93;;
17482;SDS011;8858;52.308;20.994;2022-08-01T00:30:52;9.40;;;3.67;;
17482;SDS011;8858;52.308;20.994;2022-08-01T00:33:24;8.80;;;3.70;;
17482;SDS011;8858;52.308;20.994;2022-08-01T00:35:54;4.23;;;3.60;;
17482;SDS011;8858;52.308;20.994;2022-08-01T00:38:22;5.37;;;3.37;;
17482;SDS011;8858;52.308;20.994;2022-08-01T00:40:52;4.37;;;3.53;;
17482;SDS011;8858;52.308;20.994;2022-08-01T00:43:21;7.00;;;3.50;;
17482;SDS011;8858;52.308;20.994;2022-08-01T00:45:50;5.27;;;3.60;;
17482;SDS011;8858;52.308;20.994;2022-08-01T00:48:18;6.00;;;3.70;;
17482;SDS011;8858;52.308;20.994;2022-08-01T00:50:47;4.70;;;3.50;;
17482;SDS011;8858;52.308;20.994;2022-08-01T00:53:17;4.77;;;3.50;;
17482;SDS011;8858;52.308;20.994;2022-08-01T00:55:46;8.73;;;3.77;;
17482;SDS011;8858;52.308;20.994;2022-08-01T00:58:20;5.77;;;3.60;;
17482;SDS011;8858;52.308;20.994;2022-08-01T01:00:49;7.33;;;4.00;;
17482;SDS011;8858;52.308;20.994;2022-08-01T01:03:22;6.03;;;3.73;;
17482;SDS011;8858;52.308;20.994;2022-08-01T01:06:14;8.30;;;3.80;;
17482;SDS011;8858;52.308;20.994;2022-08-01T01:08:58;5.53;;;3.80;;
17482;SDS011;8858;52.308;20.994;2022-08-01T01:11:36;9.60;;;4.00;;
17482;SDS011;8858;52.308;20.994;2022-08-01T01:14:13;4.13;;;3.70;;
17482;SDS011;8858;52.308;20.994;2022-08-01T01:16:51;4.53;;;3.40;;
17482;SDS011;8858;52.308;20.994;2022-08-01T01:19:23;6.77;;;3.80;;
17482;SDS011;8858;52.308;20.994;2022-08-01T01:22:03;5.60;;;3.60;;
17482;SDS011;8858;52.308;20.994;2022-08-01T01:24:44;4.93;;;3.70;;
17482;SDS011;8858;52.308;20.994;2022-08-01T01:27:21;3.67;;;3.37;;
17482;SDS011;8858;52.308;20.994;2022-08-01T01:29:59;4.40;;;3.67;;
17482;SDS011;8858;52.308;20.994;2022-08-01T01:32:31;9.70;;;4.07;;
17482;SDS011;8858;52.308;20.994;2022-08-01T01:35:05;5.53;;;3.93;;
17482;SDS011;8858;52.308;20.994;2022-08-01T01:37:37;6.80;;;3.97;;
17482;SDS011;8858;52.308;20.994;2022-08-01T01:40:11;8.00;;;3.90;;
17482;SDS011;8858;52.308;20.994;2022-08-01T01:42:42;5.97;;;4.20;;
17482;SDS011;8858;52.308;20.994;2022-08-01T01:45:14;7.20;;;4.07;;
17482;SDS011;8858;52.308;20.994;2022-08-01T01:47:44;5.77;;;3.97;;
17482;SDS011;8858;52.308;20.994;2022-08-01T01:50:14;4.30;;;3.73;;
17482;SDS011;8858;52.308;20.994;2022-08-01T01:52:43;6.90;;;3.67;;
17482;SDS011;8858;52.308;20.994;2022-08-01T01:55:13;6.80;;;4.63;;
17482;SDS011;8858;52.308;20.994;2022-08-01T01:57:47;5.37;;;3.90;;
17482;SDS011;8858;52.308;20.994;2022-08-01T02:00:19;16.33;;;4.87;;
17482;SDS011;8858;52.308;20.994;2022-08-01T02:02:48;6.10;;;3.67;;
17482;SDS011;8858;52.308;20.994;2022-08-01T02:05:19;6.07;;;3.90;;
17482;SDS011;8858;52.308;20.994;2022-08-01T02:07:49;6.83;;;3.73;;
17482;SDS011;8858;52.308;20.994;2022-08-01T02:10:24;5.23;;;3.80;;
17482;SDS011;8858;52.308;20.994;2022-08-01T02:12:55;4.53;;;4.10;;
17482;SDS011;8858;52.308;20.994;2022-08-01T02:15:27;7.60;;;4.30;;
17482;SDS011;8858;52.308;20.994;2022-08-01T02:17:57;10.30;;;3.83;;
17482;SDS011;8858;52.308;20.994;2022-08-01T02:20:29;7.90;;;4.63;;
17482;SDS011;8858;52.308;20.994;2022-08-01T02:23:00;6.80;;;4.10;;
17482;SDS011;8858;52.308;20.994;2022-08-01T02:25:38;8.23;;;4.33;;
17482;SDS011;8858;52.308;20.994;2022-08-01T02:28:38;5.93;;;4.10;;
17482;SDS011;8858;52.308;20.994;2022-08-01T02:31:13;9.93;;;4.43;;
17482;SDS011;8858;52.308;20.994;2022-08-01T02:33:46;7.70;;;4.57;;
17482;SDS011;8858;52.308;20.994;2022-08-01T02:36:19;8.37;;;4.13;;
17482;SDS011;8858;52.308;20.994;2022-08-01T02:38:59;7.77;;;4.63;;
17482;SDS011;8858;52.308;20.994;2022-08-01T02:41:31;9.33;;;4.83;;
17482;SDS011;8858;52.308;20.994;2022-08-01T02:44:05;8.63;;;4.63;;
17482;SDS011;8858;52.308;20.994;2022-08-01T02:46:38;4.97;;;4.47;;
17482;SDS011;8858;52.308;20.994;2022-08-01T02:49:11;9.60;;;4.47;;
17482;SDS011;8858;52.308;20.994;2022-08-01T02:51:40;6.97;;;4.60;;
17482;SDS011;8858;52.308;20.994;2022-08-01T02:54:13;6.67;;;4.67;;
17482;SDS011;8858;52.308;20.994;2022-08-01T02:56:45;6.40;;;4.20;;
17482;SDS011;8858;52.308;20.994;2022-08-01T02:59:21;5.57;;;4.00;;
17482;SDS011;8858;52.308;20.994;2022-08-01T03:01:53;8.83;;;4.40;;
17482;SDS011;8858;52.308;20.994;2022-08-01T03:04:28;9.80;;;4.50;;
17482;SDS011;8858;52.308;20.994;2022-08-01T03:06:58;4.83;;;4.07;;
17482;SDS011;8858;52.308;20.994;2022-08-01T03:09:32;4.63;;;4.20;;
17482;SDS011;8858;52.308;20.994;2022-08-01T03:12:04;5.43;;;4.33;;
17482;SDS011;8858;52.308;20.994;2022-08-01T03:14:38;9.53;;;4.60;;
17482;SDS011;8858;52.308;20.994;2022-08-01T03:17:15;4.93;;;3.93;;
17482;SDS011;8858;52.308;20.994;2022-08-01T03:19:48;5.20;;;4.70;;
17482;SDS011;8858;52.308;20.994;2022-08-01T03:22:20;9.23;;;4.20;;
17482;SDS011;8858;52.308;20.994;2022-08-01T03:24:54;7.93;;;4.60;;
17482;SDS011;8858;52.308;20.994;2022-08-01T03:27:26;8.83;;;4.50;;
17482;SDS011;8858;52.308;20.994;2022-08-01T03:29:56;8.67;;;4.33;;
17482;SDS011;8858;52.308;20.994;2022-08-01T03:32:27;7.67;;;4.37;;
17482;SDS011;8858;52.308;20.994;2022-08-01T03:34:58;5.53;;;4.70;;
17482;SDS011;8858;52.308;20.994;2022-08-01T03:37:32;11.37;;;5.30;;
17482;SDS011;8858;52.308;20.994;2022-08-01T03:40:25;6.90;;;4.53;;
17482;SDS011;8858;52.308;20.994;2022-08-01T03:42:59;7.53;;;4.60;;
17482;SDS011;8858;52.308;20.994;2022-08-01T03:45:35;5.70;;;4.70;;
17482;SDS011;8858;52.308;20.994;2022-08-01T03:48:08;7.47;;;5.13;;
17482;SDS011;8858;52.308;20.994;2022-08-01T03:50:42;5.43;;;4.93;;
17482;SDS011;8858;52.308;20.994;2022-08-01T03:53:13;8.03;;;5.03;;
17482;SDS011;8858;52.308;20.994;2022-08-01T03:55:48;5.83;;;5.20;;
17482;SDS011;8858;52.308;20.994;2022-08-01T03:58:17;7.17;;;5.77;;
17482;SDS011;8858;52.308;20.994;2022-08-01T04:00:46;7.20;;;5.20;;
17482;SDS011;8858;52.308;20.994;2022-08-01T04:03:18;6.93;;;5.40;;
17482;SDS011;8858;52.308;20.994;2022-08-01T04:05:47;8.10;;;5.60;;
17482;SDS011;8858;52.308;20.994;2022-08-01T04:08:19;6.50;;;5.70;;
17482;SDS011;8858;52.308;20.994;2022-08-01T04:10:54;7.07;;;6.10;;
17482;SDS011;8858;52.308;20.994;2022-08-01T04:13:26;9.23;;;5.87;;
17482;SDS011;8858;52.308;20.994;2022-08-01T04:16:03;6.30;;;5.40;;
17482;SDS011;8858;52.308;20.994;2022-08-01T04:18:36;10.73;;;6.20;;
17482;SDS011;8858;52.308;20.994;2022-08-01T04:21:04;8.53;;;5.77;;
17482;SDS011;8858;52.308;20.994;2022-08-01T04:23:34;8.30;;;6.27;;
17482;SDS011;8858;52.308;20.994;2022-08-01T04:26:02;10.63;;;6.13;;
17482;SDS011;8858;52.308;20.994;2022-08-01T04:28:33;6.20;;;5.67;;
17482;SDS011;8858;52.308;20.994;2022-08-01T04:31:05;6.27;;;5.70;;
17482;SDS011;8858;52.308;20.994;2022-08-01T04:33:39;9.03;;;5.80;;
17482;SDS011;8858;52.308;20.994;2022-08-01T04:36:10;8.03;;;6.10;;
17482;SDS011;8858;52.308;20.994;2022-08-01T04:38:42;7.70;;;5.77;;
17482;SDS011;8858;52.308;20.994;2022-08-01T04:41:22;8.67;;;6.13;;
17482;SDS011;8858;52.308;20.994;2022-08-01T04:43:51;6.57;;;5.97;;
17482;SDS011;8858;52.308;20.994;2022-08-01T04:46:24;8.43;;;6.03;;
17482;SDS011;8858;52.308;20.994;2022-08-01T04:48:54;6.57;;;5.73;;
17482;SDS011;8858;52.308;20.994;2022-08-01T04:51:26;7.33;;;6.13;;
17482;SDS011;8858;52.308;20.994;2022-08-01T04:53:54;10.20;;;5.73;;
17482;SDS011;8858;52.308;20.994;2022-08-01T04:56:24;7.87;;;6.23;;
17482;SDS011;8858;52.308;20.994;2022-08-01T04:58:55;7.80;;;6.03;;
17482;SDS011;8858;52.308;20.994;2022-08-01T05:01:48;6.93;;;6.23;;
17482;SDS011;8858;52.308;20.994;2022-08-01T05:04:19;7.07;;;6.43;;
17482;SDS011;8858;52.308;20.994;2022-08-01T05:06:50;6.87;;;6.27;;
17482;SDS011;8858;52.308;20.994;2022-08-01T05:09:19;6.97;;;6.27;;
17482;SDS011;8858;52.308;20.994;2022-08-01T05:11:48;7.27;;;6.57;;
17482;SDS011;8858;52.308;20.994;2022-08-01T05:14:25;7.33;;;6.73;;
17482;SDS011;8858;52.308;20.994;2022-08-01T05:16:53;7.37;;;6.70;;
17482;SDS011;8858;52.308;20.994;2022-08-01T05:19:27;10.23;;;6.50;;
17482;SDS011;8858;52.308;20.994;2022-08-01T05:21:57;7.83;;;6.70;;
17482;SDS011;8858;52.308;20.994;2022-08-01T05:24:34;8.00;;;7.30;;
17482;SDS011;8858;52.308;20.994;2022-08-01T05:27:05;8.13;;;7.13;;
17482;SDS011;8858;52.308;20.994;2022-08-01T05:29:41;9.63;;;7.40;;
17482;SDS011;8858;52.308;20.994;2022-08-01T05:32:10;8.80;;;8.00;;
17482;SDS011;8858;52.308;20.994;2022-08-01T05:34:40;8.93;;;7.90;;
17482;SDS011;8858;52.308;20.994;2022-08-01T05:37:08;10.50;;;8.37;;
17482;SDS011;8858;52.308;20.994;2022-08-01T05:39:37;8.57;;;7.67;;
17482;SDS011;8858;52.308;20.994;2022-08-01T05:42:09;8.03;;;7.43;;
17482;SDS011;8858;52.308;20.994;2022-08-01T05:44:38;11.63;;;8.50;;
17482;SDS011;8858;52.308;20.994;2022-08-01T05:47:10;7.37;;;6.63;;
17482;SDS011;8858;52.308;20.994;2022-08-01T05:49:38;9.20;;;6.80;;
17482;SDS011;8858;52.308;20.994;2022-08-01T05:52:08;9.60;;;6.70;;
17482;SDS011;8858;52.308;20.994;2022-08-01T05:54:38;7.33;;;6.73;;
17482;SDS011;8858;52.308;20.994;2022-08-01T05:57:07;13.23;;;7.03;;
17482;SDS011;8858;52.308;20.994;2022-08-01T05:59:38;9.03;;;6.87;;
17482;SDS011;8858;52.308;20.994;2022-08-01T06:02:07;7.97;;;6.40;;
17482;SDS011;8858;52.308;20.994;2022-08-01T06:04:37;7.43;;;6.60;;
17482;SDS011;8858;52.308;20.994;2022-08-01T06:07:09;6.63;;;6.03;;
17482;SDS011;8858;52.308;20.994;2022-08-01T06:09:37;6.63;;;5.47;;
17482;SDS011;8858;52.308;20.994;2022-08-01T06:12:08;7.77;;;5.63;;
17482;SDS011;8858;52.308;20.994;2022-08-01T06:14:37;7.00;;;5.80;;
17482;SDS011;8858;52.308;20.994;2022-08-01T06:17:05;7.90;;;5.07;;
17482;SDS011;8858;52.308;20.994;2022-08-01T06:19:33;7.17;;;6.30;;
17482;SDS011;8858;52.308;20.994;2022-08-01T06:22:02;9.83;;;6.20;;
17482;SDS011;8858;52.308;20.994;2022-08-01T06:24:35;6.40;;;4.43;;
17482;SDS011;8858;52.308;20.994;2022-08-01T06:27:04;4.90;;;4.40;;
17482;SDS011;8858;52.308;20.994;2022-08-01T06:29:48;4.87;;;4.47;;
17482;SDS011;8858;52.308;20.994;2022-08-01T06:32:19;4.60;;;4.20;;
17482;SDS011;8858;52.308;20.994;2022-08-01T06:34:53;5.37;;;4.20;;
17482;SDS011;8858;52.308;20.994;2022-08-01T06:37:22;5.93;;;4.20;;
17482;SDS011;8858;52.308;20.994;2022-08-01T06:39:52;4.80;;;4.13;;
17482;SDS011;8858;52.308;20.994;2022-08-01T06:42:21;7.13;;;3.90;;
17482;SDS011;8858;52.308;20.994;2022-08-01T06:44:54;4.83;;;3.80;;
17482;SDS011;8858;52.308;20.994;2022-08-01T06:47:24;5.03;;;4.00;;
17482;SDS011;8858;52.308;20.994;2022-08-01T06:49:53;5.27;;;3.73;;
17482;SDS011;8858;52.308;20.994;2022-08-01T06:52:21;7.53;;;3.80;;
17482;SDS011;8858;52.308;20.994;2022-08-01T06:54:50;5.30;;;3.70;;
17482;SDS011;8858;52.308;20.994;2022-08-01T06:57:20;8.93;;;3.50;;
17482;SDS011;8858;52.308;20.994;2022-08-01T06:59:48;3.40;;;3.20;;
17482;SDS011;8858;52.308;20.994;2022-08-01T07:02:21;5.00;;;3.33;;
17482;SDS011;8858;52.308;20.994;2022-08-01T07:04:49;3.73;;;3.40;;
17482;SDS011;8858;52.308;20.994;2022-08-01T07:07:18;4.93;;;3.27;;
17482;SDS011;8858;52.308;20.994;2022-08-01T07:09:46;4.63;;;3.63;;
17482;SDS011;8858;52.308;20.994;2022-08-01T07:12:21;4.43;;;3.80;;
17482;SDS011;8858;52.308;20.994;2022-08-01T07:14:50;4.53;;;2.63;;
17482;SDS011;8858;52.308;20.994;2022-08-01T07:17:22;5.90;;;3.00;;
17482;SDS011;8858;52.308;20.994;2022-08-01T07:19:51;4.40;;;3.00;;
17482;SDS011;8858;52.308;20.994;2022-08-01T07:22:24;4.80;;;2.53;;
17482;SDS011;8858;52.308;20.994;2022-08-01T07:24:52;6.30;;;2.87;;
17482;SDS011;8858;52.308;20.994;2022-08-01T07:27:22;6.07;;;2.57;;
17482;SDS011;8858;52.308;20.994;2022-08-01T07:29:52;4.17;;;2.43;;
17482;SDS011;8858;52.308;20.994;2022-08-01T07:32:21;3.27;;;2.57;;
17482;SDS011;8858;52.308;20.994;2022-08-01T07:34:50;10.93;;;2.40;;
17482;SDS011;8858;52.308;20.994;2022-08-01T07:37:18;2.73;;;2.30;;
17482;SDS011;8858;52.308;20.994;2022-08-01T07:40:07;2.17;;;1.95;;
17482;SDS011;8858;52.308;20.994;2022-08-01T07:42:39;4.57;;;2.13;;
17482;SDS011;8858;52.308;20.994;2022-08-01T07:45:11;3.78;;;2.13;;
17482;SDS011;8858;52.308;20.994;2022-08-01T07:47:40;4.57;;;1.90;;
17482;SDS011;8858;52.308;20.994;2022-08-01T07:50:08;4.50;;;1.90;;
17482;SDS011;8858;52.308;20.994;2022-08-01T07:52:41;2.63;;;1.90;;
17482;SDS011;8858;52.308;20.994;2022-08-01T07:55:11;3.20;;;2.10;;
17482;SDS011;8858;52.308;20.994;2022-08-01T07:57:45;2.10;;;1.85;;
17482;SDS011;8858;52.308;20.994;2022-08-01T08:00:13;4.22;;;1.90;;
17482;SDS011;8858;52.308;20.994;2022-08-01T08:02:43;5.85;;;1.77;;
17482;SDS011;8858;52.308;20.994;2022-08-01T08:05:12;2.92;;;2.00;;
17482;SDS011;8858;52.308;20.994;2022-08-01T08:08:04;3.35;;;1.80;;
17482;SDS011;8858;52.308;20.994;2022-08-01T08:10:33;3.75;;;1.98;;
17482;SDS011;8858;52.308;20.994;2022-08-01T08:13:04;2.38;;;1.40;;
17482;SDS011;8858;52.308;20.994;2022-08-01T08:15:34;2.15;;;1.55;;
17482;SDS011;8858;52.308;20.994;2022-08-01T08:18:03;3.45;;;1.80;;
17482;SDS011;8858;52.308;20.994;2022-08-01T08:20:34;1.40;;;1.30;;
17482;SDS011;8858;52.308;20.994;2022-08-01T08:23:03;4.05;;;1.50;;
17482;SDS011;8858;52.308;20.994;2022-08-01T08:26:10;6.38;;;1.70;;
17482;SDS011;8858;52.308;20.994;2022-08-01T08:28:40;2.13;;;1.50;;
17482;SDS011;8858;52.308;20.994;2022-08-01T08:31:13;4.82;;;1.60;;
17482;SDS011;8858;52.308;20.994;2022-08-01T08:34:01;2.75;;;1.60;;
17482;SDS011;8858;52.308;20.994;2022-08-01T08:36:29;3.33;;;1.80;;
17482;SDS011;8858;52.308;20.994;2022-08-01T08:38:59;1.95;;;1.67;;
17482;SDS011;8858;52.308;20.994;2022-08-01T08:41:28;5.38;;;1.88;;
17482;SDS011;8858;52.308;20.994;2022-08-01T08:44:05;3.10;;;1.63;;
17482;SDS011;8858;52.308;20.994;2022-08-01T08:46:40;1.95;;;1.52;;
17482;SDS011;8858;52.308;20.994;2022-08-01T08:49:12;2.28;;;1.38;;
17482;SDS011;8858;52.308;20.994;2022-08-01T08:51:44;1.83;;;1.70;;
17482;SDS011;8858;52.308;20.994;2022-08-01T08:54:19;3.35;;;1.80;;
17482;SDS011;8858;52.308;20.994;2022-08-01T08:56:57;2.67;;;1.40;;
17482;SDS011;8858;52.308;20.994;2022-08-01T08:59:28;3.35;;;1.45;;
17482;SDS011;8858;52.308;20.994;2022-08-01T09:01:57;3.25;;;1.63;;
17482;SDS011;8858;52.308;20.994;2022-08-01T09:04:27;1.58;;;1.25;;
17482;SDS011;8858;52.308;20.994;2022-08-01T09:06:56;1.40;;;1.23;;
17482;SDS011;8858;52.308;20.994;2022-08-01T09:09:24;3.97;;;1.42;;
17482;SDS011;8858;52.308;20.994;2022-08-01T09:11:54;1.92;;;1.38;;
17482;SDS011;8858;52.308;20.994;2022-08-01T09:14:24;2.45;;;1.42;;
17482;SDS011;8858;52.308;20.994;2022-08-01T09:17:01;3.90;;;1.40;;
17482;SDS011;8858;52.308;20.994;2022-08-01T09:19:37;3.13;;;1.58;;
17482;SDS011;8858;52.308;20.994;2022-08-01T09:22:10;1.70;;;1.40;;
17482;SDS011;8858;52.308;20.994;2022-08-01T09:24:40;2.15;;;1.58;;
17482;SDS011;8858;52.308;20.994;2022-08-01T09:27:17;2.25;;;1.40;;
17482;SDS011;8858;52.308;20.994;2022-08-01T09:29:48;1.58;;;1.35;;
17482;SDS011;8858;52.308;20.994;2022-08-01T09:32:29;2.75;;;1.50;;
17482;SDS011;8858;52.308;20.994;2022-08-01T09:38:12;1.83;;;1.40;;
17482;SDS011;8858;52.308;20.994;2022-08-01T09:40:46;5.35;;;2.67;;
17482;SDS011;8858;52.308;20.994;2022-08-01T09:43:18;2.80;;;1.58;;
17482;SDS011;8858;52.308;20.994;2022-08-01T09:45:47;5.18;;;1.42;;
17482;SDS011;8858;52.308;20.994;2022-08-01T09:48:21;3.60;;;1.45;;
17482;SDS011;8858;52.308;20.994;2022-08-01T09:50:56;7.72;;;1.60;;
17482;SDS011;8858;52.308;20.994;2022-08-01T09:53:42;1.48;;;1.33;;
17482;SDS011;8858;52.308;20.994;2022-08-01T09:56:18;3.25;;;1.20;;
17482;SDS011;8858;52.308;20.994;2022-08-01T09:58:52;1.60;;;1.33;;
17482;SDS011;8858;52.308;20.994;2022-08-01T10:01:27;3.17;;;1.45;;
17482;SDS011;8858;52.308;20.994;2022-08-01T10:04:07;2.97;;;1.25;;
17482;SDS011;8858;52.308;20.994;2022-08-01T10:06:37;2.72;;;1.52;;
17482;SDS011;8858;52.308;20.994;2022-08-01T10:09:09;3.25;;;1.33;;
17482;SDS011;8858;52.308;20.994;2022-08-01T10:11:40;3.10;;;1.60;;
17482;SDS011;8858;52.308;20.994;2022-08-01T10:14:12;1.50;;;1.40;;
17482;SDS011;8858;52.308;20.994;2022-08-01T10:16:44;2.45;;;1.30;;
17482;SDS011;8858;52.308;20.994;2022-08-01T10:19:23;3.42;;;1.40;;
17482;SDS011;8858;52.308;20.994;2022-08-01T10:21:55;2.95;;;1.25;;
17482;SDS011;8858;52.308;20.994;2022-08-01T10:24:29;1.15;;;1.10;;
17482;SDS011;8858;52.308;20.994;2022-08-01T10:27:00;1.88;;;1.40;;
17482;SDS011;8858;52.308;20.994;2022-08-01T10:29:37;2.67;;;1.20;;
17482;SDS011;8858;52.308;20.994;2022-08-01T10:32:33;1.58;;;1.23;;
17482;SDS011;8858;52.308;20.994;2022-08-01T10:35:07;2.15;;;1.40;;
17482;SDS011;8858;52.308;20.994;2022-08-01T10:38:02;3.40;;;1.40;;
17482;SDS011;8858;52.308;20.994;2022-08-01T10:40:36;3.88;;;1.30;;
17482;SDS011;8858;52.308;20.994;2022-08-01T10:43:05;6.43;;;1.27;;
17482;SDS011;8858;52.308;20.994;2022-08-01T10:45:38;2.97;;;1.30;;
17482;SDS011;8858;52.308;20.994;2022-08-01T10:48:09;4.53;;;1.48;;
17482;SDS011;8858;52.308;20.994;2022-08-01T10:50:48;6.43;;;1.30;;
17482;SDS011;8858;52.308;20.994;2022-08-01T10:53:20;4.80;;;1.60;;
17482;SDS011;8858;52.308;20.994;2022-08-01T10:56:08;3.20;;;1.30;;
17482;SDS011;8858;52.308;20.994;2022-08-01T10:58:42;2.95;;;1.67;;
17482;SDS011;8858;52.308;20.994;2022-08-01T11:01:19;3.40;;;1.55;;
17482;SDS011;8858;52.308;20.994;2022-08-01T11:04:07;3.75;;;1.60;;
17482;SDS011;8858;52.308;20.994;2022-08-01T11:06:52;4.22;;;1.85;;
17482;SDS011;8858;52.308;20.994;2022-08-01T11:09:23;7.30;;;3.38;;
17482;SDS011;8858;52.308;20.994;2022-08-01T11:12:04;4.45;;;1.80;;
17482;SDS011;8858;52.308;20.994;2022-08-01T11:17:56;2.45;;;1.30;;
17482;SDS011;8858;52.308;20.994;2022-08-01T11:20:32;1.40;;;1.27;;
17482;SDS011;8858;52.308;20.994;2022-08-01T11:23:19;5.55;;;1.60;;
17482;SDS011;8858;52.308;20.994;2022-08-01T11:31:53;4.75;;;1.98;;
17482;SDS011;8858;52.308;20.994;2022-08-01T11:34:51;2.58;;;1.60;;
17482;SDS011;8858;52.308;20.994;2022-08-01T11:37:24;3.05;;;1.40;;
17482;SDS011;8858;52.308;20.994;2022-08-01T11:40:15;2.08;;;1.55;;
17482;SDS011;8858;52.308;20.994;2022-08-01T11:45:49;2.60;;;1.42;;
17482;SDS011;8858;52.308;20.994;2022-08-01T11:48:20;3.10;;;1.30;;
17482;SDS011;8858;52.308;20.994;2022-08-01T11:50:54;1.70;;;1.60;;
17482;SDS011;8858;52.308;20.994;2022-08-01T11:53:27;1.30;;;1.20;;
17482;SDS011;8858;52.308;20.994;2022-08-01T11:56:00;4.13;;;1.45;;
17482;SDS011;8858;52.308;20.994;2022-08-01T11:58:31;1.80;;;1.20;;
17482;SDS011;8858;52.308;20.994;2022-08-01T12:01:00;3.40;;;1.40;;
17482;SDS011;8858;52.308;20.994;2022-08-01T12:03:32;1.52;;;1.40;;
17482;SDS011;8858;52.308;20.994;2022-08-01T12:06:02;2.45;;;1.50;;
17482;SDS011;8858;52.308;20.994;2022-08-01T12:08:33;1.45;;;1.20;;
17482;SDS011;8858;52.308;20.994;2022-08-01T12:11:04;2.53;;;1.60;;
17482;SDS011;8858;52.308;20.994;2022-08-01T12:13:39;1.52;;;1.33;;
17482;SDS011;8858;52.308;20.994;2022-08-01T12:16:10;2.45;;;1.20;;
17482;SDS011;8858;52.308;20.994;2022-08-01T12:18:40;2.70;;;1.38;;
17482;SDS011;8858;52.308;20.994;2022-08-01T12:21:09;2.17;;;1.30;;
17482;SDS011;8858;52.308;20.994;2022-08-01T12:23:38;1.60;;;1.50;;
17482;SDS011;8858;52.308;20.994;2022-08-01T12:26:08;3.05;;;1.45;;
17482;SDS011;8858;52.308;20.994;2022-08-01T12:28:57;1.63;;;1.40;;
17482;SDS011;8858;52.308;20.994;2022-08-01T12:31:33;3.47;;;1.70;;
17482;SDS011;8858;52.308;20.994;2022-08-01T12:36:53;1.60;;;1.50;;
17482;SDS011;8858;52.308;20.994;2022-08-01T12:39:30;1.50;;;1.40;;
17482;SDS011;8858;52.308;20.994;2022-08-01T12:42:07;1.80;;;1.50;;
17482;SDS011;8858;52.308;20.994;2022-08-01T12:44:37;1.98;;;1.30;;
17482;SDS011;8858;52.308;20.994;2022-08-01T12:47:07;6.40;;;1.73;;
17482;SDS011;8858;52.308;20.994;2022-08-01T12:49:41;6.13;;;1.70;;
17482;SDS011;8858;52.308;20.994;2022-08-01T12:52:11;2.47;;;1.63;;
17482;SDS011;8858;52.308;20.994;2022-08-01T12:57:46;2.45;;;1.40;;
17482;SDS011;8858;52.308;20.994;2022-08-01T13:00:18;2.45;;;1.50;;
17482;SDS011;8858;52.308;20.994;2022-08-01T13:02:59;1.85;;;1.35;;
17482;SDS011;8858;52.308;20.994;2022-08-01T13:05:40;1.30;;;1.20;;
17482;SDS011;8858;52.308;20.994;2022-08-01T13:08:09;4.38;;;1.40;;
17482;SDS011;8858;52.308;20.994;2022-08-01T13:10:39;3.08;;;2.00;;
17482;SDS011;8858;52.308;20.994;2022-08-01T13:13:15;2.72;;;1.55;;
17482;SDS011;8858;52.308;20.994;2022-08-01T13:16:02;3.10;;;1.33;;
17482;SDS011;8858;52.308;20.994;2022-08-01T13:18:37;5.70;;;1.58;;
17482;SDS011;8858;52.308;20.994;2022-08-01T13:21:07;1.92;;;1.70;;
17482;SDS011;8858;52.308;20.994;2022-08-01T13:23:37;2.55;;;1.65;;
17482;SDS011;8858;52.308;20.994;2022-08-01T13:26:42;2.42;;;1.58;;
17482;SDS011;8858;52.308;20.994;2022-08-01T13:29:18;1.83;;;1.73;;
17482;SDS011;8858;52.308;20.994;2022-08-01T13:31:49;2.28;;;1.65;;
17482;SDS011;8858;52.308;20.994;2022-08-01T13:35:02;3.38;;;1.70;;
17482;SDS011;8858;52.308;20.994;2022-08-01T13:37:31;5.30;;;2.33;;
17482;SDS011;8858;52.308;20.994;2022-08-01T13:40:04;4.53;;;2.03;;
17482;SDS011;8858;52.308;20.994;2022-08-01T13:42:34;2.90;;;1.75;;
17482;SDS011;8858;52.308;20.994;2022-08-01T13:45:05;2.05;;;1.45;;
17482;SDS011;8858;52.308;20.994;2022-08-01T13:47:40;2.38;;;1.50;;
17482;SDS011;8858;52.308;20.994;2022-08-01T13:50:32;2.65;;;1.50;;
17482;SDS011;8858;52.308;20.994;2022-08-01T13:53:02;3.45;;;1.55;;
17482;SDS011;8858;52.308;20.994;2022-08-01T13:55:30;3.10;;;1.50;;
17482;SDS011;8858;52.308;20.994;2022-08-01T13:58:00;2.03;;;1.85;;
17482;SDS011;8858;52.308;20.994;2022-08-01T14:00:30;4.05;;;3.60;;
17482;SDS011;8858;52.308;20.994;2022-08-01T14:03:03;1.80;;;1.70;;
17482;SDS011;8858;52.308;20.994;2022-08-01T14:05:33;5.95;;;1.73;;
17482;SDS011;8858;52.308;20.994;2022-08-01T14:08:03;2.25;;;1.80;;
17482;SDS011;8858;52.308;20.994;2022-08-01T14:10:32;3.22;;;1.65;;
17482;SDS011;8858;52.308;20.994;2022-08-01T14:13:00;6.00;;;1.90;;
17482;SDS011;8858;52.308;20.994;2022-08-01T14:15:33;3.53;;;1.70;;
17482;SDS011;8858;52.308;20.994;2022-08-01T14:18:05;2.92;;;1.90;;
17482;SDS011;8858;52.308;20.994;2022-08-01T14:20:36;3.10;;;2.00;;
17482;SDS011;8858;52.308;20.994;2022-08-01T14:23:05;4.18;;;2.20;;
17482;SDS011;8858;52.308;20.994;2022-08-01T14:25:35;2.88;;;2.17;;
17482;SDS011;8858;52.308;20.994;2022-08-01T14:28:26;2.90;;;2.28;;
17482;SDS011;8858;52.308;20.994;2022-08-01T14:30:58;3.60;;;2.08;;
17482;SDS011;8858;52.308;20.994;2022-08-01T14:33:29;3.90;;;2.30;;
17482;SDS011;8858;52.308;20.994;2022-08-01T14:36:03;4.22;;;2.08;;
17482;SDS011;8858;52.308;20.994;2022-08-01T14:38:52;4.35;;;2.25;;
17482;SDS011;8858;52.308;20.994;2022-08-01T14:41:26;3.85;;;2.08;;
17482;SDS011;8858;52.308;20.994;2022-08-01T14:43:59;3.25;;;2.30;;
17482;SDS011;8858;52.308;20.994;2022-08-01T14:46:29;3.30;;;2.30;;
17482;SDS011;8858;52.308;20.994;2022-08-01T14:48:59;2.40;;;2.10;;
17482;SDS011;8858;52.308;20.994;2022-08-01T14:51:27;2.75;;;1.95;;
17482;SDS011;8858;52.308;20.994;2022-08-01T14:54:02;5.57;;;2.33;;
17482;SDS011;8858;52.308;20.994;2022-08-01T14:56:32;2.10;;;1.90;;
17482;SDS011;8858;52.308;20.994;2022-08-01T14:59:00;5.28;;;2.53;;
17482;SDS011;8858;52.308;20.994;2022-08-01T15:01:48;4.68;;;2.00;;
17482;SDS011;8858;52.308;20.994;2022-08-01T15:04:16;2.67;;;1.60;;
17482;SDS011;8858;52.308;20.994;2022-08-01T15:06:44;4.03;;;1.80;;
17482;SDS011;8858;52.308;20.994;2022-08-01T15:09:12;2.40;;;1.63;;
17482;SDS011;8858;52.308;20.994;2022-08-01T15:11:41;4.13;;;1.63;;
17482;SDS011;8858;52.308;20.994;2022-08-01T15:14:11;2.35;;;1.50;;
17482;SDS011;8858;52.308;20.994;2022-08-01T15:17:00;4.78;;;2.10;;
17482;SDS011;8858;52.308;20.994;2022-08-01T15:19:29;3.15;;;2.22;;
17482;SDS011;8858;52.308;20.994;2022-08-01T15:21:57;2.40;;;2.20;;
17482;SDS011;8858;52.308;20.994;2022-08-01T15:24:29;6.15;;;2.10;;
17482;SDS011;8858;52.308;20.994;2022-08-01T15:26:57;5.13;;;2.00;;
17482;SDS011;8858;52.308;20.994;2022-08-01T15:29:28;4.82;;;2.20;;
17482;SDS011;8858;52.308;20.994;2022-08-01T15:31:57;2.75;;;1.98;;
17482;SDS011;8858;52.308;20.994;2022-08-01T15:34:26;4.05;;;1.88;;
17482;SDS011;8858;52.308;20.994;2022-08-01T15:36:54;3.10;;;1.98;;
17482;SDS011;8858;52.308;20.994;2022-08-01T15:39:23;3.15;;;2.13;;
17482;SDS011;8858;52.308;20.994;2022-08-01T15:41:52;2.95;;;1.77;;
17482;SDS011;8858;52.308;20.994;2022-08-01T15:44:21;4.15;;;1.98;;